createdAt,value
2022-09-10T00:00:39.511Z,26.64
2022-09-10T00:05:38.637Z,26.58
2022-09-10T00:10:32.371Z,26.61
2022-09-10T00:15:26.319Z,26.65
2022-09-10T00:20:20.625Z,26.70
2022-09-10T00:25:15.331Z,26.57
2022-09-10T00:30:12.228Z,26.64
2022-09-10T00:35:07.519Z,26.60
2022-09-10T00:40:01.043Z,26.67
2022-09-10T00:45:02.790Z,26.55
2022-09-10T00:50:24.058Z,26.63
2022-09-10T00:55:18.584Z,26.60
2022-09-10T01:00:13.700Z,26.60
2022-09-10T01:05:15.190Z,26.61
2022-09-10T01:10:15.225Z,26.61
2022-09-10T01:15:36.211Z,26.58
2022-09-10T01:20:32.020Z,26.61
2022-09-10T01:25:42.955Z,26.61
2022-09-10T01:30:50.304Z,26.48
2022-09-10T01:35:54.996Z,26.57
2022-09-10T01:40:52.822Z,26.48
2022-09-10T01:46:05.716Z,26.58
2022-09-10T01:51:17.302Z,26.51
2022-09-10T01:56:19.629Z,26.55
2022-09-10T02:01:17.348Z,26.53
2022-09-10T02:06:15.962Z,26.51
2022-09-10T02:11:12.300Z,26.45
2022-09-10T02:16:12.309Z,26.41
2022-09-10T02:21:08.660Z,26.33
2022-09-10T02:26:02.518Z,26.47
2022-09-10T02:30:57.204Z,26.29
2022-09-10T02:35:50.823Z,26.27
2022-09-10T02:40:45.617Z,26.39
2022-09-10T02:45:39.742Z,26.49
2022-09-10T02:50:34.956Z,26.40
2022-09-10T02:55:29.843Z,26.48
2022-09-10T03:00:23.174Z,26.40
2022-09-10T03:05:16.082Z,26.41
2022-09-10T03:10:09.589Z,26.51
2022-09-10T03:15:02.997Z,26.41
2022-09-10T03:19:56.956Z,26.53
2022-09-10T03:24:50.197Z,26.49
2022-09-10T03:29:46.035Z,26.38
2022-09-10T03:34:40.661Z,26.44
2022-09-10T03:39:34.386Z,26.32
2022-09-10T03:44:28.904Z,26.28
2022-09-10T03:49:23.220Z,26.25
2022-09-10T03:54:17.465Z,26.42
2022-09-10T03:59:14.168Z,26.32
2022-09-10T04:04:09.276Z,26.33
2022-09-10T04:09:03.155Z,26.41
2022-09-10T04:13:57.980Z,26.39
2022-09-10T04:18:53.236Z,26.31
2022-09-10T04:23:47.063Z,26.13
2022-09-10T04:28:40.400Z,26.10
2022-09-10T04:33:34.228Z,26.25
2022-09-10T04:38:31.245Z,26.31
2022-09-10T04:43:24.800Z,26.22
2022-09-10T04:48:18.355Z,26.33
2022-09-10T04:53:11.278Z,26.32
2022-09-10T04:58:06.485Z,26.37
2022-09-10T05:03:00.951Z,26.25
2022-09-10T05:07:55.956Z,26.36
2022-09-10T05:12:49.523Z,26.28
2022-09-10T05:17:42.963Z,26.08
2022-09-10T05:22:40.490Z,26.32
2022-09-10T05:27:34.648Z,26.22
2022-09-10T05:32:29.625Z,26.34
2022-09-10T05:37:26.856Z,26.30
2022-09-10T05:42:22.279Z,26.17
2022-09-10T05:47:15.924Z,26.28
2022-09-10T05:52:09.880Z,26.28
2022-09-10T05:57:04.020Z,26.09
2022-09-10T06:01:58.806Z,26.32
2022-09-10T06:06:53.112Z,26.26
2022-09-10T06:11:50.903Z,26.20
2022-09-10T06:16:46.327Z,26.12
2022-09-10T06:21:40.815Z,26.06
2022-09-10T06:26:34.164Z,26.16
2022-09-10T06:31:32.852Z,25.81
2022-09-10T06:36:29.463Z,25.51
2022-09-10T06:41:23.332Z,25.41
2022-09-10T06:47:02.856Z,25.13
2022-09-10T06:51:36.335Z,25.57
2022-09-10T06:56:30.672Z,25.82
2022-09-10T07:01:26.591Z,25.83
2022-09-10T07:06:23.604Z,25.88
2022-09-10T07:11:19.989Z,25.95
2022-09-10T07:16:14.257Z,25.88
2022-09-10T07:21:15.249Z,26.04
2022-09-10T07:26:14.840Z,25.98
2022-09-10T07:31:25.709Z,26.10
2022-09-10T07:36:19.297Z,26.12
2022-09-10T07:41:16.201Z,26.04
2022-09-10T07:46:13.441Z,26.19
2022-09-10T07:51:14.036Z,26.20
2022-09-10T07:56:09.316Z,26.07
2022-09-10T08:01:12.407Z,26.16
2022-09-10T08:06:07.476Z,26.25
2022-09-10T08:11:18.291Z,26.29
2022-09-10T08:16:17.246Z,26.32
2022-09-10T08:21:10.481Z,26.26
2022-09-10T08:26:06.110Z,26.34
2022-09-10T08:31:02.666Z,26.25
2022-09-10T08:36:00.166Z,26.30
2022-09-10T08:40:55.484Z,26.18
2022-09-10T08:45:52.931Z,26.27
2022-09-10T08:50:55.828Z,26.24
2022-09-10T08:55:52.073Z,26.32
2022-09-10T09:00:46.153Z,26.29
2022-09-10T09:05:50.131Z,26.29
2022-09-10T09:10:51.530Z,26.15
2022-09-10T09:16:06.418Z,26.25
2022-09-10T09:21:16.728Z,26.19
2022-09-10T09:26:16.947Z,26.20
2022-09-10T09:31:21.619Z,26.28
2022-09-10T09:36:27.343Z,26.28
2022-09-10T09:41:43.669Z,26.28
2022-09-10T09:46:39.676Z,26.28
2022-09-10T09:51:36.354Z,26.28
2022-09-10T09:56:38.311Z,26.26
2022-09-10T10:01:33.881Z,26.15
2022-09-10T10:06:47.660Z,26.18
2022-09-10T10:11:51.358Z,26.27
2022-09-10T10:16:44.693Z,26.27
2022-09-10T10:21:38.741Z,26.25
2022-09-10T10:26:41.130Z,26.24
2022-09-10T10:31:44.593Z,26.26
2022-09-10T10:37:05.611Z,26.27
2022-09-10T10:42:16.085Z,26.28
2022-09-10T10:47:12.435Z,26.17
2022-09-10T10:52:27.096Z,26.29
2022-09-10T10:57:50.704Z,26.19
2022-09-10T11:03:17.209Z,26.24
2022-09-10T11:08:15.740Z,26.12
2022-09-10T11:13:17.842Z,26.11
2022-09-10T11:18:21.946Z,26.15
2022-09-10T11:23:55.764Z,26.20
2022-09-10T11:29:19.827Z,26.13
2022-09-10T11:34:24.953Z,26.22
2022-09-10T11:39:30.325Z,26.23
2022-09-10T11:44:40.748Z,26.26
2022-09-10T11:49:58.825Z,26.26
2022-09-10T11:54:53.378Z,26.25
2022-09-10T12:00:12.955Z,26.25
2022-09-10T12:05:37.363Z,26.24
2022-09-10T12:10:33.645Z,26.24
2022-09-10T12:15:32.119Z,26.22
2022-09-10T12:20:32.605Z,26.24
2022-09-10T12:25:34.818Z,26.23
2022-09-10T12:30:37.303Z,26.24
2022-09-10T12:35:36.086Z,26.25
2022-09-10T12:40:29.119Z,26.24
2022-09-10T12:45:59.813Z,26.23
2022-09-10T12:50:57.527Z,26.25
2022-09-10T12:55:58.235Z,26.23
2022-09-10T13:00:56.984Z,26.25
2022-09-10T13:05:54.108Z,26.15
2022-09-10T13:11:06.685Z,26.26
2022-09-10T13:16:00.795Z,26.26
2022-09-10T13:20:55.352Z,26.18
2022-09-10T13:25:50.712Z,26.17
2022-09-10T13:30:45.387Z,26.27
2022-09-10T13:36:07.868Z,26.27
2022-09-10T13:41:21.883Z,26.18
2022-09-10T13:46:52.950Z,26.29
2022-09-10T13:51:55.039Z,26.20
2022-09-10T13:56:49.141Z,26.12
2022-09-10T14:01:54.110Z,26.20
2022-09-10T14:06:48.189Z,26.30
2022-09-10T14:11:43.423Z,26.28
2022-09-10T14:16:45.796Z,26.32
2022-09-10T14:21:39.542Z,26.14
2022-09-10T14:26:34.454Z,26.17
2022-09-10T14:31:27.268Z,26.36
2022-09-10T14:36:43.956Z,26.37
2022-09-10T14:41:38.580Z,26.25
2022-09-10T14:47:00.946Z,26.39
2022-09-10T14:51:54.639Z,26.37
2022-09-10T14:56:49.272Z,26.27
2022-09-10T15:01:44.902Z,26.38
2022-09-10T15:06:38.530Z,26.41
2022-09-10T15:11:32.808Z,26.29
2022-09-10T15:16:26.261Z,26.27
2022-09-10T15:21:20.253Z,26.40
2022-09-10T15:26:16.544Z,26.26
2022-09-10T15:31:11.745Z,26.43
2022-09-10T15:36:07.384Z,26.33
2022-09-10T15:41:11.284Z,26.44
2022-09-10T15:46:11.822Z,26.46
2022-09-10T15:51:14.295Z,26.45
2022-09-10T15:56:10.583Z,26.47
2022-09-10T16:01:12.643Z,26.28
2022-09-10T16:06:08.231Z,26.47
2022-09-10T16:11:10.357Z,26.44
2022-09-10T16:16:05.894Z,26.50
2022-09-10T16:21:32.731Z,26.49
2022-09-10T16:26:30.072Z,26.51
2022-09-10T16:31:32.159Z,26.51
2022-09-10T16:36:26.695Z,26.51
2022-09-10T16:41:21.052Z,26.46
2022-09-10T16:46:15.504Z,26.45
2022-09-10T16:51:17.042Z,26.52
2022-09-10T16:56:13.653Z,26.55
2022-09-10T17:01:09.384Z,26.55
2022-09-10T17:06:04.092Z,26.43
2022-09-10T17:10:57.770Z,26.55
2022-09-10T17:15:51.625Z,26.53
2022-09-10T17:20:45.403Z,26.54
2022-09-10T17:25:39.728Z,26.46
2022-09-10T17:30:33.819Z,26.53
2022-09-10T17:35:28.212Z,26.60
2022-09-10T17:40:24.544Z,26.55
2022-09-10T17:45:18.585Z,26.55
2022-09-10T17:50:13.326Z,26.60
2022-09-10T17:55:08.506Z,26.54
2022-09-10T18:00:03.400Z,26.59
2022-09-10T18:04:58.195Z,26.67
2022-09-10T18:09:52.062Z,26.66
2022-09-10T18:14:46.682Z,26.74
2022-09-10T18:19:40.420Z,26.77
2022-09-10T18:24:35.464Z,26.70
2022-09-10T18:29:34.339Z,26.50
2022-09-10T18:34:36.545Z,26.73
2022-09-10T18:39:35.880Z,26.60
2022-09-10T18:44:38.930Z,26.51
2022-09-10T18:49:40.224Z,26.51
2022-09-10T18:54:47.856Z,26.49
2022-09-10T18:59:53.885Z,26.58
2022-09-10T19:05:11.429Z,26.70
2022-09-10T19:10:18.018Z,26.61
2022-09-10T19:15:22.807Z,26.26
2022-09-10T19:20:18.161Z,26.51
2022-09-10T19:25:15.764Z,26.51
2022-09-10T19:30:17.350Z,26.40
2022-09-10T19:35:14.479Z,26.35
2022-09-10T19:40:18.362Z,26.25
2022-09-10T19:45:22.330Z,26.37
2022-09-10T19:50:27.440Z,26.45
2022-09-10T19:55:28.303Z,26.65
2022-09-10T20:00:45.869Z,26.64
2022-09-10T20:05:50.292Z,26.54
2022-09-10T20:10:57.092Z,26.54
2022-09-10T20:15:58.049Z,26.25
2022-09-10T20:20:57.371Z,26.30
2022-09-10T20:26:01.512Z,26.43
2022-09-10T20:31:03.162Z,26.41
2022-09-10T20:36:05.986Z,26.35
2022-09-10T20:41:09.358Z,26.23
2022-09-10T20:46:05.552Z,26.30
2022-09-10T20:51:03.399Z,26.34
2022-09-10T20:56:06.590Z,26.20
2022-09-10T21:01:07.355Z,26.16
2022-09-10T21:06:01.173Z,25.93
2022-09-10T21:10:54.913Z,25.92
2022-09-10T21:15:49.132Z,26.14
2022-09-10T21:20:43.345Z,26.18
2022-09-10T21:25:37.515Z,26.19
2022-09-10T21:30:31.076Z,26.20
2022-09-10T21:35:24.667Z,26.19
2022-09-10T21:40:18.971Z,25.86
2022-09-10T21:45:13.127Z,26.20
2022-09-10T21:50:06.966Z,26.10
2022-09-10T21:55:00.912Z,26.10
2022-09-10T21:59:54.502Z,26.09
2022-09-10T22:04:48.340Z,25.88
2022-09-10T22:09:47.152Z,25.78
2022-09-10T22:14:41.212Z,25.52
2022-09-10T22:19:36.282Z,26.03
2022-09-10T22:24:29.780Z,25.93
2022-09-10T22:29:22.511Z,25.62
2022-09-10T22:34:17.118Z,25.90
2022-09-10T22:39:15.927Z,25.98
2022-09-10T22:44:09.572Z,26.10
2022-09-10T22:49:04.069Z,26.19
2022-09-10T22:54:04.991Z,26.09
2022-09-10T22:59:02.081Z,26.12
2022-09-10T23:04:00.196Z,26.26
2022-09-10T23:08:56.055Z,26.37
2022-09-10T23:13:53.692Z,26.27
2022-09-10T23:18:55.420Z,26.39
2022-09-10T23:23:49.832Z,26.40
2022-09-10T23:28:43.934Z,26.32
2022-09-10T23:33:38.778Z,26.41
2022-09-10T23:38:35.309Z,26.32
2022-09-10T23:43:31.285Z,26.44
2022-09-10T23:48:25.625Z,26.34
2022-09-10T23:53:20.378Z,26.32
2022-09-10T23:58:14.421Z,26.42
